createdAt,value
2023-02-15T00:01:44.255Z,0.59
2023-02-15T00:04:15.232Z,0.58
2023-02-15T00:06:43.090Z,0.36
2023-02-15T00:11:51.983Z,0.61
2023-02-15T00:14:22.013Z,0.41
2023-02-15T00:19:18.963Z,0.66
2023-02-15T00:24:15.562Z,0.57
2023-02-15T00:34:22.977Z,0.66
2023-02-15T00:36:50.001Z,0.68
2023-02-15T00:41:43.972Z,0.61
2023-02-15T00:49:13.010Z,0.59
2023-02-15T00:54:07.028Z,0.60
2023-02-15T00:59:04.123Z,0.70
2023-02-15T01:03:58.973Z,0.64
2023-02-15T01:08:53.228Z,0.71
2023-02-15T01:13:50.982Z,0.65
2023-02-15T01:21:16.040Z,0.71
2023-02-15T01:28:55.068Z,0.57
2023-02-15T01:31:25.215Z,0.49
2023-02-15T01:36:21.050Z,0.56
2023-02-15T01:41:18.007Z,0.50
2023-02-15T01:46:16.376Z,0.55
2023-02-15T01:51:14.057Z,0.48
2023-02-15T01:56:11.028Z,0.42
2023-02-15T02:03:33.066Z,0.26
2023-02-15T02:08:30.187Z,0.23
2023-02-15T02:13:27.007Z,0.31
2023-02-15T02:18:24.038Z,0.24
2023-02-15T02:34:04.226Z,-0.04
2023-02-15T02:36:34.161Z,0.13
2023-02-15T02:41:31.020Z,0.05
2023-02-15T02:52:02.050Z,-0.03
2023-02-15T02:56:56.144Z,0.08
2023-02-15T03:01:53.154Z,0.03
2023-02-15T03:09:15.014Z,-0.07
2023-02-15T03:14:12.061Z,-0.04
2023-02-15T03:19:09.046Z,-0.14
2023-02-15T03:26:55.029Z,-0.03
2023-02-15T03:29:25.152Z,-0.08
2023-02-15T03:34:22.089Z,-0.09
2023-02-15T03:39:19.104Z,-0.05
2023-02-15T03:44:16.158Z,-0.14
2023-02-15T03:57:20.399Z,-0.15
2023-02-15T04:02:18.204Z,-0.14
2023-02-15T04:15:33.628Z,-0.32
2023-02-15T04:18:03.072Z,-0.23
2023-02-15T04:23:25.729Z,-0.16
2023-02-15T04:25:53.862Z,-0.42
2023-02-15T04:28:21.997Z,-0.42
2023-02-15T04:36:05.120Z,-0.26
2023-02-15T04:38:35.107Z,-0.12
2023-02-15T04:43:32.142Z,-0.24
2023-02-15T04:48:29.069Z,-0.26
2023-02-15T04:56:18.289Z,-0.09
2023-02-15T05:01:22.566Z,-0.17
2023-02-15T05:03:50.327Z,-0.14
2023-02-15T05:06:18.153Z,-0.16
2023-02-15T05:08:45.846Z,-0.29
2023-02-15T05:11:13.568Z,-0.34
2023-02-15T05:13:42.122Z,-0.15
2023-02-15T05:16:10.005Z,-0.25
2023-02-15T05:18:39.160Z,-0.16
2023-02-15T05:21:06.881Z,-0.15
2023-02-15T05:23:34.652Z,-0.50
2023-02-15T05:26:19.904Z,-0.09
2023-02-15T05:28:47.632Z,-0.23
2023-02-15T05:31:16.804Z,-0.27
2023-02-15T05:33:46.339Z,-0.21
2023-02-15T05:36:14.341Z,-0.11
2023-02-15T05:38:42.285Z,-0.12
2023-02-15T05:41:11.054Z,-0.11
2023-02-15T05:43:39.371Z,-0.28
2023-02-15T05:46:08.028Z,-0.29
2023-02-15T05:48:36.329Z,-0.09
2023-02-15T05:51:06.856Z,-0.06
2023-02-15T05:53:36.106Z,-0.19
2023-02-15T05:56:04.671Z,-0.11
2023-02-15T05:58:34.126Z,-0.24
2023-02-15T06:01:02.010Z,-0.15
2023-02-15T06:03:29.761Z,-0.07
2023-02-15T06:05:57.487Z,-0.19
2023-02-15T06:08:26.600Z,-0.03
2023-02-15T06:10:54.441Z,-0.27
2023-02-15T06:13:22.210Z,-0.14
2023-02-15T06:15:49.917Z,-0.31
2023-02-15T06:18:17.645Z,-0.24
2023-02-15T06:20:47.544Z,-0.35
2023-02-15T06:23:15.387Z,-0.30
2023-02-15T06:25:44.887Z,-0.09
2023-02-15T06:28:12.621Z,-0.46
2023-02-15T06:30:40.319Z,-0.13
2023-02-15T06:33:08.163Z,-0.08
2023-02-15T06:35:35.951Z,-0.19
2023-02-15T06:38:03.664Z,-0.36
2023-02-15T06:40:31.404Z,-0.16
2023-02-15T06:43:00.583Z,-0.29
2023-02-15T06:45:28.418Z,-0.07
2023-02-15T06:47:58.403Z,-0.31
2023-02-15T06:50:26.174Z,0.09
2023-02-15T06:52:57.967Z,-0.26
2023-02-15T06:55:25.610Z,-0.10
2023-02-15T06:57:53.208Z,0.10
2023-02-15T07:05:18.204Z,0.06
2023-02-15T07:10:15.260Z,0.10
2023-02-15T07:15:12.272Z,0.16
2023-02-15T07:20:09.087Z,0.15
2023-02-15T07:25:06.269Z,0.08
2023-02-15T07:30:03.470Z,0.10
2023-02-15T07:35:02.183Z,0.21
2023-02-15T07:45:11.258Z,0.15
2023-02-15T07:47:41.205Z,0.23
2023-02-15T07:52:38.334Z,0.19
2023-02-15T08:02:57.181Z,0.16
2023-02-15T08:05:25.301Z,0.26
2023-02-15T08:10:24.454Z,0.22
2023-02-15T08:15:22.205Z,0.26
2023-02-15T08:20:19.393Z,0.28
2023-02-15T08:25:20.035Z,0.01
2023-02-15T08:30:32.944Z,0.29
2023-02-15T08:35:32.191Z,0.18
2023-02-15T08:40:29.100Z,0.30
2023-02-15T08:42:56.930Z,0.36
2023-02-15T08:45:26.513Z,0.48
2023-02-15T08:47:56.734Z,0.40
2023-02-15T08:50:24.531Z,0.45
2023-02-15T08:52:52.159Z,0.43
2023-02-15T08:55:22.370Z,0.44
2023-02-15T08:57:51.566Z,0.40
2023-02-15T09:00:20.824Z,0.28
2023-02-15T09:02:50.237Z,0.33
2023-02-15T09:07:47.187Z,0.36
2023-02-15T09:12:45.812Z,0.26
2023-02-15T09:15:15.207Z,0.36
2023-02-15T09:17:45.262Z,0.37
2023-02-15T09:20:14.655Z,0.28
2023-02-15T09:22:44.220Z,0.35
2023-02-15T09:27:41.288Z,0.43
2023-02-15T09:32:38.295Z,0.57
2023-02-15T09:35:07.922Z,0.61
2023-02-15T09:37:35.552Z,0.55
2023-02-15T09:40:03.561Z,0.52
2023-02-15T09:42:47.806Z,0.47
2023-02-15T09:45:25.840Z,0.42
2023-02-15T09:48:05.934Z,0.16
2023-02-15T09:50:40.969Z,0.53
2023-02-15T09:53:21.736Z,0.63
2023-02-15T09:55:53.644Z,0.62
2023-02-15T09:58:27.890Z,0.66
2023-02-15T10:01:01.008Z,0.57
2023-02-15T10:03:41.160Z,0.66
2023-02-15T10:06:34.263Z,0.73
2023-02-15T10:09:15.428Z,0.83
2023-02-15T10:11:53.597Z,0.84
2023-02-15T10:14:38.711Z,0.88
2023-02-15T10:17:15.058Z,0.82
2023-02-15T10:19:46.128Z,0.95
2023-02-15T10:22:24.282Z,1.01
2023-02-15T10:25:04.885Z,1.07
2023-02-15T10:27:35.002Z,0.84
2023-02-15T10:30:09.962Z,0.95
2023-02-15T10:32:42.374Z,0.96
2023-02-15T10:35:16.506Z,1.04
2023-02-15T10:37:58.091Z,1.08
2023-02-15T10:40:32.051Z,1.04
2023-02-15T10:43:10.062Z,1.14
2023-02-15T10:45:45.415Z,1.15
2023-02-15T10:48:24.060Z,1.14
2023-02-15T10:50:53.709Z,0.86
2023-02-15T10:53:39.178Z,1.15
2023-02-15T10:56:14.239Z,1.01
2023-02-15T10:58:52.877Z,1.04
2023-02-15T11:01:24.689Z,0.92
2023-02-15T11:04:22.039Z,0.99
2023-02-15T11:06:52.935Z,1.12
2023-02-15T11:09:24.167Z,1.03
2023-02-15T11:11:55.193Z,1.19
2023-02-15T11:14:29.925Z,1.15
2023-02-15T11:17:01.655Z,1.26
2023-02-15T11:19:33.698Z,1.37
2023-02-15T11:22:03.488Z,1.32
2023-02-15T11:24:36.084Z,1.38
2023-02-15T11:27:06.881Z,1.44
2023-02-15T11:29:38.870Z,1.26
2023-02-15T11:32:16.510Z,1.46
2023-02-15T11:34:51.480Z,1.41
2023-02-15T11:37:21.828Z,1.46
2023-02-15T11:39:52.769Z,1.58
2023-02-15T11:42:23.178Z,1.57
2023-02-15T11:44:58.679Z,1.66
2023-02-15T11:47:26.518Z,1.64
2023-02-15T11:49:54.122Z,1.69
2023-02-15T11:52:21.827Z,1.77
2023-02-15T11:54:52.292Z,1.69
2023-02-15T11:57:24.582Z,1.60
2023-02-15T11:59:56.138Z,1.49
2023-02-15T12:02:27.527Z,1.58
2023-02-15T12:04:58.624Z,1.64
2023-02-15T12:07:28.416Z,1.77
2023-02-15T12:10:05.013Z,1.68
2023-02-15T12:12:34.524Z,1.67
2023-02-15T12:15:03.498Z,1.58
2023-02-15T12:17:33.341Z,1.69
2023-02-15T12:20:03.510Z,1.68
2023-02-15T12:22:32.990Z,1.85
2023-02-15T12:25:04.920Z,1.76
2023-02-15T12:27:33.591Z,1.79
2023-02-15T12:30:03.273Z,1.88
2023-02-15T12:32:33.766Z,1.90
2023-02-15T12:35:04.046Z,1.87
2023-02-15T12:37:35.604Z,1.97
2023-02-15T12:40:21.610Z,1.75
2023-02-15T12:42:49.403Z,1.64
2023-02-15T12:45:26.758Z,1.56
2023-02-15T12:48:18.197Z,1.34
2023-02-15T12:50:46.613Z,1.67
2023-02-15T12:53:20.433Z,1.63
2023-02-15T12:55:58.309Z,1.83
2023-02-15T12:58:27.725Z,1.81
2023-02-15T13:01:06.864Z,1.58
2023-02-15T13:03:34.813Z,1.76
2023-02-15T13:06:08.215Z,1.72
2023-02-15T13:08:37.968Z,1.82
2023-02-15T13:11:10.903Z,1.53
2023-02-15T13:13:49.815Z,1.73
2023-02-15T13:16:28.535Z,1.70
2023-02-15T13:18:56.691Z,1.59
2023-02-15T13:21:26.130Z,1.78
2023-02-15T13:23:58.291Z,1.73
2023-02-15T13:29:06.258Z,1.70
2023-02-15T13:31:36.618Z,1.98
2023-02-15T13:34:11.767Z,2.09
2023-02-15T13:36:44.394Z,2.08
2023-02-15T13:39:20.537Z,2.08
2023-02-15T13:41:57.834Z,2.10
2023-02-15T13:44:38.256Z,2.27
2023-02-15T13:47:14.030Z,2.32
2023-02-15T13:49:52.386Z,2.20
2023-02-15T13:52:22.618Z,2.11
2023-02-15T13:55:09.108Z,2.13
2023-02-15T13:57:52.184Z,2.29
2023-02-15T14:00:25.173Z,2.20
2023-02-15T14:03:11.681Z,2.20
2023-02-15T14:05:59.576Z,2.26
2023-02-15T14:08:38.649Z,2.29
2023-02-15T14:11:10.912Z,2.45
2023-02-15T14:14:13.835Z,2.57
2023-02-15T14:17:05.473Z,2.32
2023-02-15T14:19:38.304Z,2.17
2023-02-15T14:22:12.749Z,2.36
2023-02-15T14:24:44.335Z,2.23
2023-02-15T14:27:21.494Z,2.42
2023-02-15T14:29:53.661Z,2.27
2023-02-15T14:32:29.075Z,2.37
2023-02-15T14:34:58.793Z,2.24
2023-02-15T14:37:35.582Z,2.53
2023-02-15T14:42:59.318Z,2.06
2023-02-15T14:45:33.781Z,2.23
2023-02-15T14:48:12.174Z,2.10
2023-02-15T14:50:50.500Z,1.98
2023-02-15T14:53:39.207Z,2.15
2023-02-15T14:56:22.957Z,2.14
2023-02-15T14:58:58.771Z,2.06
2023-02-15T15:01:28.506Z,2.09
2023-02-15T15:04:00.094Z,1.90
2023-02-15T15:06:29.510Z,2.08
2023-02-15T15:09:01.560Z,2.14
2023-02-15T15:11:48.658Z,2.20
2023-02-15T15:14:39.159Z,2.18
2023-02-15T15:17:08.099Z,2.23
2023-02-15T15:20:15.038Z,2.26
2023-02-15T15:22:43.984Z,2.20
2023-02-15T15:25:14.679Z,2.30
2023-02-15T15:27:51.161Z,2.26
2023-02-15T15:30:51.347Z,2.24
2023-02-15T15:33:53.922Z,2.03
2023-02-15T15:36:55.050Z,1.99
2023-02-15T15:39:53.012Z,1.98
2023-02-15T15:42:32.339Z,2.05
2023-02-15T15:45:37.304Z,2.09
2023-02-15T15:48:21.311Z,2.05
2023-02-15T15:50:57.254Z,1.90
2023-02-15T15:53:27.881Z,2.11
2023-02-15T15:55:59.740Z,1.88
2023-02-15T15:58:27.720Z,2.08
2023-02-15T16:00:59.074Z,2.05
2023-02-15T16:03:28.452Z,2.11
2023-02-15T16:05:56.554Z,1.96
2023-02-15T16:08:32.510Z,2.06
2023-02-15T16:11:00.775Z,2.12
2023-02-15T16:13:28.700Z,1.98
2023-02-15T16:15:57.433Z,1.69
2023-02-15T16:18:27.260Z,1.94
2023-02-15T16:20:57.286Z,1.98
2023-02-15T16:24:03.464Z,1.89
2023-02-15T16:26:55.478Z,1.93
2023-02-15T16:29:29.076Z,1.82
2023-02-15T16:32:04.260Z,1.86
2023-02-15T16:34:33.655Z,1.73
2023-02-15T16:37:17.987Z,1.77
2023-02-15T16:39:46.629Z,1.85
2023-02-15T16:42:16.412Z,1.84
2023-02-15T16:44:45.402Z,1.76
2023-02-15T16:47:19.686Z,1.87
2023-02-15T16:49:49.616Z,1.61
2023-02-15T16:52:21.963Z,1.57
2023-02-15T16:54:54.074Z,1.47
2023-02-15T16:57:24.931Z,1.56
2023-02-15T16:59:54.390Z,1.66
2023-02-15T17:02:49.423Z,1.58
2023-02-15T17:05:18.564Z,1.63
2023-02-15T17:07:53.043Z,1.65
2023-02-15T17:10:32.795Z,1.55
2023-02-15T17:13:06.347Z,1.54
2023-02-15T17:15:36.095Z,1.49
2023-02-15T17:18:06.251Z,1.49
2023-02-15T17:20:37.340Z,1.38
2023-02-15T17:23:05.837Z,1.54
2023-02-15T17:25:39.268Z,1.51
2023-02-15T17:28:17.794Z,1.24
2023-02-15T17:30:47.214Z,1.36
2023-02-15T17:33:23.536Z,1.32
2023-02-15T17:36:10.727Z,1.42
2023-02-15T17:38:40.079Z,1.46
2023-02-15T17:41:09.885Z,1.43
2023-02-15T17:43:40.860Z,1.35
2023-02-15T17:46:13.653Z,1.40
2023-02-15T17:48:43.768Z,1.24
2023-02-15T17:51:16.248Z,1.38
2023-02-15T17:54:04.675Z,1.40
2023-02-15T17:56:31.669Z,1.26
2023-02-15T17:59:00.867Z,1.34
2023-02-15T18:01:46.304Z,1.25
2023-02-15T18:04:33.339Z,1.33
2023-02-15T18:07:19.189Z,1.37
2023-02-15T18:10:04.516Z,1.19
2023-02-15T18:12:33.752Z,1.24
2023-02-15T18:15:03.785Z,1.25
2023-02-15T18:17:34.533Z,1.12
2023-02-15T18:20:05.343Z,1.36
2023-02-15T18:22:33.570Z,1.02
2023-02-15T18:25:01.418Z,1.05
2023-02-15T18:27:29.644Z,1.05
2023-02-15T18:29:57.510Z,1.10
2023-02-15T18:32:32.559Z,1.12
2023-02-15T18:35:02.494Z,1.04
2023-02-15T18:37:35.519Z,1.03
2023-02-15T18:40:05.644Z,0.86
2023-02-15T18:42:37.458Z,0.92
2023-02-15T18:45:16.972Z,1.06
2023-02-15T18:47:48.022Z,1.16
2023-02-15T18:50:16.986Z,1.04
2023-02-15T18:52:46.708Z,1.11
2023-02-15T18:55:18.899Z,1.15
2023-02-15T18:57:46.921Z,1.10
2023-02-15T19:00:19.413Z,0.95
2023-02-15T19:02:49.730Z,1.04
2023-02-15T19:05:18.557Z,1.10
2023-02-15T19:07:51.305Z,1.09
2023-02-15T19:10:20.988Z,0.94
2023-02-15T19:12:51.091Z,0.92
2023-02-15T19:15:20.901Z,0.86
2023-02-15T19:17:50.123Z,0.99
2023-02-15T19:20:19.822Z,1.05
2023-02-15T19:22:48.248Z,0.95
2023-02-15T19:25:22.564Z,0.99
2023-02-15T19:27:50.844Z,0.96
2023-02-15T19:33:19.903Z,0.71
2023-02-15T19:35:52.106Z,0.70
2023-02-15T19:38:35.072Z,0.83
2023-02-15T19:41:07.022Z,0.79
2023-02-15T19:43:49.467Z,0.74
2023-02-15T19:46:20.012Z,0.57
2023-02-15T19:48:51.754Z,0.59
2023-02-15T19:51:20.321Z,0.29
2023-02-15T19:53:49.203Z,0.31
2023-02-15T19:56:21.026Z,0.52
2023-02-15T19:58:50.770Z,0.49
2023-02-15T20:01:19.755Z,0.42
2023-02-15T20:03:51.333Z,0.50
2023-02-15T20:06:19.950Z,0.30
2023-02-15T20:08:53.415Z,0.49
2023-02-15T20:11:21.928Z,0.59
2023-02-15T20:13:50.366Z,0.53
2023-02-15T20:16:20.493Z,0.53
2023-02-15T20:18:52.045Z,0.54
2023-02-15T20:21:20.280Z,0.51
2023-02-15T20:23:47.956Z,0.54
2023-02-15T20:26:18.480Z,0.49
2023-02-15T20:28:48.634Z,0.34
2023-02-15T20:31:20.005Z,0.61
2023-02-15T20:33:56.597Z,0.47
2023-02-15T20:36:24.680Z,0.58
2023-02-15T20:38:54.171Z,0.43
2023-02-15T20:41:38.897Z,0.54
2023-02-15T20:44:24.682Z,0.60
2023-02-15T20:46:54.895Z,0.50
2023-02-15T20:49:27.312Z,0.24
2023-02-15T20:51:56.460Z,0.38
2023-02-15T20:54:25.957Z,0.43
2023-02-15T20:56:54.218Z,0.13
2023-02-15T20:59:25.285Z,0.25
2023-02-15T21:01:57.492Z,0.33
2023-02-15T21:04:30.123Z,0.39
2023-02-15T21:06:58.642Z,0.42
2023-02-15T21:09:27.590Z,0.27
2023-02-15T21:11:57.266Z,0.14
2023-02-15T21:14:29.548Z,0.26
2023-02-15T21:17:00.176Z,0.15
2023-02-15T21:19:30.271Z,0.27
2023-02-15T21:22:00.797Z,0.29
2023-02-15T21:24:29.928Z,0.32
2023-02-15T21:26:59.881Z,0.45
2023-02-15T21:29:29.333Z,0.43
2023-02-15T21:31:58.540Z,0.06
2023-02-15T21:34:26.458Z,0.34
2023-02-15T21:36:57.852Z,0.38
2023-02-15T21:39:28.208Z,0.36
2023-02-15T21:42:14.821Z,0.27
2023-02-15T21:45:00.179Z,0.29
2023-02-15T21:47:47.036Z,0.36
2023-02-15T21:50:33.768Z,0.41
2023-02-15T21:53:04.760Z,0.48
2023-02-15T21:55:33.240Z,0.35
2023-02-15T21:58:01.033Z,0.54
2023-02-15T22:00:30.997Z,0.48
2023-02-15T22:03:02.070Z,0.39
2023-02-15T22:05:32.413Z,0.26
2023-02-15T22:08:02.381Z,0.23
2023-02-15T22:10:32.581Z,0.26
2023-02-15T22:13:03.238Z,0.32
2023-02-15T22:15:35.554Z,0.21
2023-02-15T22:18:06.700Z,0.17
2023-02-15T22:20:34.638Z,0.17
2023-02-15T22:23:03.646Z,0.19
2023-02-15T22:25:36.093Z,0.22
2023-02-15T22:28:03.884Z,0.13
2023-02-15T22:30:33.199Z,0.20
2023-02-15T22:33:02.890Z,0.31
2023-02-15T22:35:32.823Z,0.27
2023-02-15T22:38:02.263Z,0.24
2023-02-15T22:40:34.788Z,0.23
2023-02-15T22:43:05.273Z,0.16
2023-02-15T22:45:35.668Z,0.24
2023-02-15T22:48:04.681Z,0.28
2023-02-15T22:50:36.951Z,0.24
2023-02-15T22:53:05.514Z,0.15
2023-02-15T22:55:39.840Z,0.38
2023-02-15T22:58:11.492Z,0.31
2023-02-15T23:00:41.873Z,0.26
2023-02-15T23:03:17.817Z,0.23
2023-02-15T23:05:48.489Z,-0.17
2023-02-15T23:08:16.955Z,0.15
2023-02-15T23:10:56.172Z,0.32
2023-02-15T23:13:26.326Z,0.36
2023-02-15T23:15:57.345Z,0.38
2023-02-15T23:18:28.276Z,0.36
2023-02-15T23:20:58.743Z,0.29
2023-02-15T23:23:32.089Z,0.24
2023-02-15T23:26:05.925Z,0.41
2023-02-15T23:28:37.548Z,0.13
2023-02-15T23:31:13.025Z,0.02
2023-02-15T23:33:41.531Z,0.06
2023-02-15T23:36:23.387Z,-0.31
2023-02-15T23:38:51.943Z,-0.19
2023-02-15T23:41:23.432Z,-0.02
2023-02-15T23:43:54.685Z,-0.13
2023-02-15T23:46:28.372Z,-0.29
2023-02-15T23:48:56.648Z,-0.35
2023-02-15T23:51:30.034Z,-0.09
2023-02-15T23:54:02.116Z,-0.23
2023-02-15T23:56:32.096Z,-0.06
2023-02-15T23:58:59.943Z,0.04
